sensor_id;sensor_type;location;lat;lon;timestamp;P1;durP1;ratioP1;P2;durP2;ratioP2
4359;SDS011;2193;47.980;7.660;2022-10-16T00:00:33;6.97;;;4.30;;
4359;SDS011;2193;47.980;7.660;2022-10-16T00:02:59;10.57;;;4.20;;
4359;SDS011;2193;47.980;7.660;2022-10-16T00:05:24;8.17;;;4.70;;
4359;SDS011;2193;47.980;7.660;2022-10-16T00:07:49;4.80;;;3.97;;
4359;SDS011;2193;47.980;7.660;2022-10-16T00:10:14;7.40;;;4.70;;
4359;SDS011;2193;47.980;7.660;2022-10-16T00:12:40;5.87;;;4.33;;
4359;SDS011;2193;47.980;7.660;2022-10-16T00:15:05;5.00;;;4.23;;
4359;SDS011;2193;47.980;7.660;2022-10-16T00:17:31;16.00;;;6.60;;
4359;SDS011;2193;47.980;7.660;2022-10-16T00:19:56;8.33;;;4.80;;
4359;SDS011;2193;47.980;7.660;2022-10-16T00:22:21;8.27;;;5.00;;
4359;SDS011;2193;47.980;7.660;2022-10-16T00:24:46;7.10;;;4.87;;
4359;SDS011;2193;47.980;7.660;2022-10-16T00:27:12;7.00;;;4.57;;
4359;SDS011;2193;47.980;7.660;2022-10-16T00:29:37;7.43;;;4.57;;
4359;SDS011;2193;47.980;7.660;2022-10-16T00:32:02;6.80;;;4.50;;
4359;SDS011;2193;47.980;7.660;2022-10-16T00:34:27;8.23;;;5.03;;
4359;SDS011;2193;47.980;7.660;2022-10-16T00:36:52;7.47;;;4.90;;
4359;SDS011;2193;47.980;7.660;2022-10-16T00:39:18;9.93;;;4.73;;
4359;SDS011;2193;47.980;7.660;2022-10-16T00:41:44;10.83;;;5.10;;
4359;SDS011;2193;47.980;7.660;2022-10-16T00:46:53;8.93;;;5.17;;
4359;SDS011;2193;47.980;7.660;2022-10-16T00:49:19;10.23;;;4.93;;
4359;SDS011;2193;47.980;7.660;2022-10-16T00:51:51;15.83;;;4.87;;
4359;SDS011;2193;47.980;7.660;2022-10-16T00:54:18;7.87;;;4.77;;
4359;SDS011;2193;47.980;7.660;2022-10-16T00:56:45;8.13;;;4.70;;
4359;SDS011;2193;47.980;7.660;2022-10-16T00:59:20;6.97;;;4.90;;
4359;SDS011;2193;47.980;7.660;2022-10-16T01:01:47;7.00;;;4.40;;
4359;SDS011;2193;47.980;7.660;2022-10-16T01:04:12;8.07;;;4.40;;
4359;SDS011;2193;47.980;7.660;2022-10-16T01:09:17;7.07;;;4.33;;
4359;SDS011;2193;47.980;7.660;2022-10-16T01:11:50;11.33;;;4.97;;
4359;SDS011;2193;47.980;7.660;2022-10-16T01:14:25;12.17;;;4.40;;
4359;SDS011;2193;47.980;7.660;2022-10-16T01:17:02;8.30;;;4.80;;
4359;SDS011;2193;47.980;7.660;2022-10-16T01:22:09;12.33;;;4.93;;
4359;SDS011;2193;47.980;7.660;2022-10-16T01:24:38;8.97;;;4.70;;
4359;SDS011;2193;47.980;7.660;2022-10-16T01:27:15;9.97;;;5.00;;
4359;SDS011;2193;47.980;7.660;2022-10-16T01:29:45;7.90;;;4.43;;
4359;SDS011;2193;47.980;7.660;2022-10-16T01:32:33;6.97;;;4.43;;
4359;SDS011;2193;47.980;7.660;2022-10-16T01:38:12;5.63;;;3.80;;
4359;SDS011;2193;47.980;7.660;2022-10-16T01:40:18;4.77;;;3.80;;
4359;SDS011;2193;47.980;7.660;2022-10-16T01:42:46;9.70;;;4.30;;
4359;SDS011;2193;47.980;7.660;2022-10-16T01:45:13;6.53;;;4.13;;
4359;SDS011;2193;47.980;7.660;2022-10-16T01:47:39;5.60;;;4.93;;
4359;SDS011;2193;47.980;7.660;2022-10-16T01:50:05;7.80;;;4.67;;
4359;SDS011;2193;47.980;7.660;2022-10-16T01:52:32;8.97;;;5.17;;
4359;SDS011;2193;47.980;7.660;2022-10-16T01:54:58;6.97;;;4.43;;
4359;SDS011;2193;47.980;7.660;2022-10-16T01:57:24;5.83;;;4.10;;
4359;SDS011;2193;47.980;7.660;2022-10-16T01:59:51;7.93;;;4.93;;
4359;SDS011;2193;47.980;7.660;2022-10-16T02:02:18;5.07;;;4.57;;
4359;SDS011;2193;47.980;7.660;2022-10-16T02:04:53;7.47;;;5.27;;
4359;SDS011;2193;47.980;7.660;2022-10-16T02:07:19;8.47;;;4.87;;
4359;SDS011;2193;47.980;7.660;2022-10-16T02:09:44;12.03;;;5.40;;
4359;SDS011;2193;47.980;7.660;2022-10-16T02:12:14;5.53;;;4.03;;
4359;SDS011;2193;47.980;7.660;2022-10-16T02:14:40;5.03;;;4.37;;
4359;SDS011;2193;47.980;7.660;2022-10-16T02:17:12;6.90;;;4.90;;
4359;SDS011;2193;47.980;7.660;2022-10-16T02:19:38;6.60;;;4.43;;
4359;SDS011;2193;47.980;7.660;2022-10-16T02:22:03;11.90;;;4.67;;
4359;SDS011;2193;47.980;7.660;2022-10-16T02:24:32;5.30;;;4.47;;
4359;SDS011;2193;47.980;7.660;2022-10-16T02:27:03;8.87;;;4.70;;
4359;SDS011;2193;47.980;7.660;2022-10-16T02:29:30;11.33;;;6.43;;
4359;SDS011;2193;47.980;7.660;2022-10-16T02:32:01;8.60;;;4.13;;
4359;SDS011;2193;47.980;7.660;2022-10-16T02:34:27;6.40;;;4.17;;
4359;SDS011;2193;47.980;7.660;2022-10-16T02:36:53;6.63;;;4.40;;
4359;SDS011;2193;47.980;7.660;2022-10-16T02:39:18;8.13;;;4.80;;
4359;SDS011;2193;47.980;7.660;2022-10-16T02:41:44;9.83;;;4.50;;
4359;SDS011;2193;47.980;7.660;2022-10-16T02:44:10;5.73;;;4.10;;
4359;SDS011;2193;47.980;7.660;2022-10-16T02:46:35;6.73;;;4.50;;
4359;SDS011;2193;47.980;7.660;2022-10-16T02:49:00;6.93;;;4.83;;
4359;SDS011;2193;47.980;7.660;2022-10-16T02:51:25;12.53;;;4.80;;
4359;SDS011;2193;47.980;7.660;2022-10-16T02:53:51;6.80;;;4.90;;
4359;SDS011;2193;47.980;7.660;2022-10-16T02:56:16;11.40;;;5.00;;
4359;SDS011;2193;47.980;7.660;2022-10-16T02:58:41;9.40;;;4.40;;
4359;SDS011;2193;47.980;7.660;2022-10-16T03:01:06;6.73;;;4.40;;
4359;SDS011;2193;47.980;7.660;2022-10-16T03:03:31;6.13;;;4.30;;
4359;SDS011;2193;47.980;7.660;2022-10-16T03:05:57;10.50;;;4.60;;
4359;SDS011;2193;47.980;7.660;2022-10-16T03:08:22;5.80;;;4.60;;
4359;SDS011;2193;47.980;7.660;2022-10-16T03:10:50;7.13;;;4.30;;
4359;SDS011;2193;47.980;7.660;2022-10-16T03:13:15;12.73;;;4.53;;
4359;SDS011;2193;47.980;7.660;2022-10-16T03:15:40;12.53;;;4.20;;
4359;SDS011;2193;47.980;7.660;2022-10-16T03:18:05;5.87;;;4.10;;
4359;SDS011;2193;47.980;7.660;2022-10-16T03:20:30;5.30;;;3.80;;
4359;SDS011;2193;47.980;7.660;2022-10-16T03:22:56;11.10;;;4.67;;
4359;SDS011;2193;47.980;7.660;2022-10-16T03:25:21;6.73;;;3.63;;
4359;SDS011;2193;47.980;7.660;2022-10-16T03:27:46;9.63;;;3.90;;
4359;SDS011;2193;47.980;7.660;2022-10-16T03:30:11;11.00;;;4.07;;
4359;SDS011;2193;47.980;7.660;2022-10-16T03:32:37;9.00;;;4.23;;
4359;SDS011;2193;47.980;7.660;2022-10-16T03:35:02;13.00;;;4.00;;
4359;SDS011;2193;47.980;7.660;2022-10-16T03:37:27;6.03;;;4.17;;
4359;SDS011;2193;47.980;7.660;2022-10-16T03:39:53;5.20;;;4.00;;
4359;SDS011;2193;47.980;7.660;2022-10-16T03:42:18;6.07;;;4.37;;
4359;SDS011;2193;47.980;7.660;2022-10-16T03:44:43;8.23;;;4.33;;
4359;SDS011;2193;47.980;7.660;2022-10-16T03:47:09;6.37;;;4.17;;
4359;SDS011;2193;47.980;7.660;2022-10-16T03:49:34;7.50;;;4.03;;
4359;SDS011;2193;47.980;7.660;2022-10-16T03:51:59;17.23;;;5.23;;
4359;SDS011;2193;47.980;7.660;2022-10-16T03:54:24;8.40;;;3.70;;
4359;SDS011;2193;47.980;7.660;2022-10-16T03:56:49;8.93;;;4.60;;
4359;SDS011;2193;47.980;7.660;2022-10-16T03:59:15;10.23;;;4.70;;
4359;SDS011;2193;47.980;7.660;2022-10-16T04:01:40;9.23;;;3.80;;
4359;SDS011;2193;47.980;7.660;2022-10-16T04:04:05;8.40;;;4.27;;
4359;SDS011;2193;47.980;7.660;2022-10-16T04:06:30;7.40;;;3.93;;
4359;SDS011;2193;47.980;7.660;2022-10-16T04:08:56;9.40;;;3.93;;
4359;SDS011;2193;47.980;7.660;2022-10-16T04:11:21;7.63;;;3.90;;
4359;SDS011;2193;47.980;7.660;2022-10-16T04:13:46;5.73;;;4.00;;
4359;SDS011;2193;47.980;7.660;2022-10-16T04:16:11;6.97;;;3.80;;
4359;SDS011;2193;47.980;7.660;2022-10-16T04:18:36;9.13;;;4.60;;
4359;SDS011;2193;47.980;7.660;2022-10-16T04:21:03;8.47;;;4.30;;
4359;SDS011;2193;47.980;7.660;2022-10-16T04:23:28;4.83;;;3.73;;
4359;SDS011;2193;47.980;7.660;2022-10-16T04:25:53;11.77;;;4.20;;
4359;SDS011;2193;47.980;7.660;2022-10-16T04:28:18;6.73;;;4.03;;
4359;SDS011;2193;47.980;7.660;2022-10-16T04:30:43;8.13;;;4.00;;
4359;SDS011;2193;47.980;7.660;2022-10-16T04:33:09;5.03;;;3.83;;
4359;SDS011;2193;47.980;7.660;2022-10-16T04:35:34;8.40;;;3.90;;
4359;SDS011;2193;47.980;7.660;2022-10-16T04:38:00;6.70;;;3.57;;
4359;SDS011;2193;47.980;7.660;2022-10-16T04:40:25;16.40;;;4.80;;
4359;SDS011;2193;47.980;7.660;2022-10-16T04:42:50;8.93;;;4.27;;
4359;SDS011;2193;47.980;7.660;2022-10-16T04:45:15;9.50;;;4.67;;
4359;SDS011;2193;47.980;7.660;2022-10-16T04:47:40;9.17;;;4.70;;
4359;SDS011;2193;47.980;7.660;2022-10-16T04:50:06;9.53;;;3.70;;
4359;SDS011;2193;47.980;7.660;2022-10-16T04:52:32;5.80;;;4.20;;
4359;SDS011;2193;47.980;7.660;2022-10-16T04:54:57;6.33;;;3.67;;
4359;SDS011;2193;47.980;7.660;2022-10-16T04:57:25;7.67;;;4.33;;
4359;SDS011;2193;47.980;7.660;2022-10-16T04:59:51;6.97;;;4.00;;
4359;SDS011;2193;47.980;7.660;2022-10-16T05:02:17;13.10;;;3.67;;
4359;SDS011;2193;47.980;7.660;2022-10-16T05:04:42;4.07;;;3.37;;
4359;SDS011;2193;47.980;7.660;2022-10-16T05:07:07;4.87;;;3.70;;
4359;SDS011;2193;47.980;7.660;2022-10-16T05:09:32;3.93;;;3.23;;
4359;SDS011;2193;47.980;7.660;2022-10-16T05:11:57;5.30;;;3.23;;
4359;SDS011;2193;47.980;7.660;2022-10-16T05:14:22;7.27;;;4.50;;
4359;SDS011;2193;47.980;7.660;2022-10-16T05:16:48;4.90;;;3.73;;
4359;SDS011;2193;47.980;7.660;2022-10-16T05:19:14;5.70;;;4.10;;
4359;SDS011;2193;47.980;7.660;2022-10-16T05:21:39;5.23;;;3.60;;
4359;SDS011;2193;47.980;7.660;2022-10-16T05:24:04;10.33;;;4.40;;
4359;SDS011;2193;47.980;7.660;2022-10-16T05:26:29;12.97;;;3.60;;
4359;SDS011;2193;47.980;7.660;2022-10-16T05:28:54;12.83;;;4.03;;
4359;SDS011;2193;47.980;7.660;2022-10-16T05:31:20;4.60;;;3.40;;
4359;SDS011;2193;47.980;7.660;2022-10-16T05:33:45;11.03;;;4.00;;
4359;SDS011;2193;47.980;7.660;2022-10-16T05:36:10;15.17;;;4.20;;
4359;SDS011;2193;47.980;7.660;2022-10-16T05:38:36;6.97;;;3.80;;
4359;SDS011;2193;47.980;7.660;2022-10-16T05:41:02;11.70;;;4.30;;
4359;SDS011;2193;47.980;7.660;2022-10-16T05:43:28;15.80;;;4.60;;
4359;SDS011;2193;47.980;7.660;2022-10-16T05:45:56;9.40;;;4.13;;
4359;SDS011;2193;47.980;7.660;2022-10-16T05:48:22;5.10;;;3.63;;
4359;SDS011;2193;47.980;7.660;2022-10-16T05:50:48;6.67;;;3.80;;
4359;SDS011;2193;47.980;7.660;2022-10-16T05:53:13;8.03;;;3.70;;
4359;SDS011;2193;47.980;7.660;2022-10-16T05:55:38;12.13;;;3.40;;
4359;SDS011;2193;47.980;7.660;2022-10-16T05:58:03;14.60;;;4.10;;
4359;SDS011;2193;47.980;7.660;2022-10-16T06:00:29;4.73;;;3.67;;
4359;SDS011;2193;47.980;7.660;2022-10-16T06:02:54;5.17;;;3.90;;
4359;SDS011;2193;47.980;7.660;2022-10-16T06:05:19;11.37;;;4.13;;
4359;SDS011;2193;47.980;7.660;2022-10-16T06:07:44;7.03;;;3.60;;
4359;SDS011;2193;47.980;7.660;2022-10-16T06:10:09;13.73;;;4.77;;
4359;SDS011;2193;47.980;7.660;2022-10-16T06:12:34;6.90;;;3.80;;
4359;SDS011;2193;47.980;7.660;2022-10-16T06:15:00;6.90;;;4.07;;
4359;SDS011;2193;47.980;7.660;2022-10-16T06:17:25;13.83;;;4.20;;
4359;SDS011;2193;47.980;7.660;2022-10-16T06:19:50;7.80;;;4.20;;
4359;SDS011;2193;47.980;7.660;2022-10-16T06:22:15;7.90;;;3.90;;
4359;SDS011;2193;47.980;7.660;2022-10-16T06:24:41;4.77;;;3.70;;
4359;SDS011;2193;47.980;7.660;2022-10-16T06:27:06;7.40;;;3.63;;
4359;SDS011;2193;47.980;7.660;2022-10-16T06:29:31;4.63;;;3.70;;
4359;SDS011;2193;47.980;7.660;2022-10-16T06:31:56;11.60;;;4.03;;
4359;SDS011;2193;47.980;7.660;2022-10-16T06:34:21;6.27;;;3.90;;
4359;SDS011;2193;47.980;7.660;2022-10-16T06:36:47;5.87;;;3.77;;
4359;SDS011;2193;47.980;7.660;2022-10-16T06:39:12;9.33;;;3.33;;
4359;SDS011;2193;47.980;7.660;2022-10-16T06:41:37;8.37;;;3.70;;
4359;SDS011;2193;47.980;7.660;2022-10-16T06:44:06;6.47;;;3.73;;
4359;SDS011;2193;47.980;7.660;2022-10-16T06:46:32;5.57;;;3.90;;
4359;SDS011;2193;47.980;7.660;2022-10-16T06:48:57;4.77;;;3.63;;
4359;SDS011;2193;47.980;7.660;2022-10-16T06:51:23;9.20;;;4.20;;
4359;SDS011;2193;47.980;7.660;2022-10-16T06:53:50;13.50;;;3.70;;
4359;SDS011;2193;47.980;7.660;2022-10-16T06:56:16;7.57;;;3.80;;
4359;SDS011;2193;47.980;7.660;2022-10-16T06:58:42;21.20;;;4.70;;
4359;SDS011;2193;47.980;7.660;2022-10-16T07:01:07;7.77;;;3.50;;
4359;SDS011;2193;47.980;7.660;2022-10-16T07:03:33;8.53;;;4.23;;
4359;SDS011;2193;47.980;7.660;2022-10-16T07:06:03;5.07;;;3.50;;
4359;SDS011;2193;47.980;7.660;2022-10-16T07:08:36;12.13;;;3.90;;
4359;SDS011;2193;47.980;7.660;2022-10-16T07:11:03;14.53;;;3.50;;
4359;SDS011;2193;47.980;7.660;2022-10-16T07:13:28;6.03;;;4.33;;
4359;SDS011;2193;47.980;7.660;2022-10-16T07:15:54;10.97;;;4.17;;
4359;SDS011;2193;47.980;7.660;2022-10-16T07:18:19;6.93;;;4.20;;
4359;SDS011;2193;47.980;7.660;2022-10-16T07:20:44;10.80;;;3.80;;
4359;SDS011;2193;47.980;7.660;2022-10-16T07:23:09;6.70;;;4.50;;
4359;SDS011;2193;47.980;7.660;2022-10-16T07:25:35;9.20;;;4.03;;
4359;SDS011;2193;47.980;7.660;2022-10-16T07:28:00;6.97;;;4.33;;
4359;SDS011;2193;47.980;7.660;2022-10-16T07:30:25;12.57;;;5.10;;
4359;SDS011;2193;47.980;7.660;2022-10-16T07:32:50;27.30;;;13.43;;
4359;SDS011;2193;47.980;7.660;2022-10-16T07:35:15;15.13;;;8.80;;
4359;SDS011;2193;47.980;7.660;2022-10-16T07:37:43;10.97;;;5.80;;
4359;SDS011;2193;47.980;7.660;2022-10-16T07:40:09;8.47;;;5.07;;
4359;SDS011;2193;47.980;7.660;2022-10-16T07:42:34;7.67;;;5.60;;
4359;SDS011;2193;47.980;7.660;2022-10-16T07:44:59;7.77;;;4.73;;
4359;SDS011;2193;47.980;7.660;2022-10-16T07:47:24;9.60;;;5.37;;
4359;SDS011;2193;47.980;7.660;2022-10-16T07:49:50;7.30;;;5.47;;
4359;SDS011;2193;47.980;7.660;2022-10-16T07:52:15;4.90;;;4.13;;
4359;SDS011;2193;47.980;7.660;2022-10-16T07:54:40;7.03;;;3.67;;
4359;SDS011;2193;47.980;7.660;2022-10-16T07:57:05;4.77;;;3.60;;
4359;SDS011;2193;47.980;7.660;2022-10-16T07:59:30;5.10;;;3.40;;
4359;SDS011;2193;47.980;7.660;2022-10-16T08:01:56;5.93;;;3.43;;
4359;SDS011;2193;47.980;7.660;2022-10-16T08:04:21;4.03;;;3.63;;
4359;SDS011;2193;47.980;7.660;2022-10-16T08:06:46;6.40;;;3.97;;
4359;SDS011;2193;47.980;7.660;2022-10-16T08:09:11;7.80;;;4.50;;
4359;SDS011;2193;47.980;7.660;2022-10-16T08:11:36;8.20;;;4.57;;
4359;SDS011;2193;47.980;7.660;2022-10-16T08:14:02;7.50;;;4.17;;
4359;SDS011;2193;47.980;7.660;2022-10-16T08:16:27;4.90;;;3.80;;
4359;SDS011;2193;47.980;7.660;2022-10-16T08:18:52;9.57;;;3.73;;
4359;SDS011;2193;47.980;7.660;2022-10-16T08:21:19;11.30;;;3.73;;
4359;SDS011;2193;47.980;7.660;2022-10-16T08:23:45;5.30;;;3.50;;
4359;SDS011;2193;47.980;7.660;2022-10-16T08:26:10;11.37;;;3.30;;
4359;SDS011;2193;47.980;7.660;2022-10-16T08:28:36;12.43;;;3.47;;
4359;SDS011;2193;47.980;7.660;2022-10-16T08:31:05;7.90;;;3.93;;
4359;SDS011;2193;47.980;7.660;2022-10-16T08:33:30;7.90;;;3.10;;
4359;SDS011;2193;47.980;7.660;2022-10-16T08:35:55;4.50;;;3.60;;
4359;SDS011;2193;47.980;7.660;2022-10-16T08:38:21;6.30;;;3.03;;
4359;SDS011;2193;47.980;7.660;2022-10-16T08:40:46;7.53;;;3.10;;
4359;SDS011;2193;47.980;7.660;2022-10-16T08:45:44;5.33;;;2.87;;
4359;SDS011;2193;47.980;7.660;2022-10-16T08:49:00;3.20;;;2.70;;
4359;SDS011;2193;47.980;7.660;2022-10-16T08:51:01;4.67;;;3.07;;
4359;SDS011;2193;47.980;7.660;2022-10-16T08:53:31;3.20;;;2.90;;
4359;SDS011;2193;47.980;7.660;2022-10-16T08:56:01;6.33;;;3.17;;
4359;SDS011;2193;47.980;7.660;2022-10-16T08:58:27;9.63;;;2.40;;
4359;SDS011;2193;47.980;7.660;2022-10-16T09:00:54;6.97;;;2.90;;
4359;SDS011;2193;47.980;7.660;2022-10-16T09:09:16;5.93;;;2.80;;
4359;SDS011;2193;47.980;7.660;2022-10-16T09:19:42;9.03;;;3.77;;
4359;SDS011;2193;47.980;7.660;2022-10-16T09:22:12;3.53;;;2.90;;
4359;SDS011;2193;47.980;7.660;2022-10-16T09:24:39;4.37;;;2.90;;
4359;SDS011;2193;47.980;7.660;2022-10-16T09:27:04;6.53;;;2.77;;
4359;SDS011;2193;47.980;7.660;2022-10-16T09:29:29;8.97;;;3.23;;
4359;SDS011;2193;47.980;7.660;2022-10-16T09:31:54;9.33;;;3.20;;
4359;SDS011;2193;47.980;7.660;2022-10-16T09:36:47;3.07;;;2.50;;
4359;SDS011;2193;47.980;7.660;2022-10-16T09:39:13;3.77;;;2.20;;
4359;SDS011;2193;47.980;7.660;2022-10-16T09:41:39;5.70;;;2.00;;
4359;SDS011;2193;47.980;7.660;2022-10-16T09:44:06;4.33;;;2.33;;
4359;SDS011;2193;47.980;7.660;2022-10-16T09:46:40;5.20;;;2.37;;
4359;SDS011;2193;47.980;7.660;2022-10-16T09:49:25;5.80;;;2.23;;
4359;SDS011;2193;47.980;7.660;2022-10-16T09:51:50;2.20;;;2.00;;
4359;SDS011;2193;47.980;7.660;2022-10-16T09:54:17;6.83;;;2.07;;
4359;SDS011;2193;47.980;7.660;2022-10-16T09:56:43;3.23;;;2.00;;
4359;SDS011;2193;47.980;7.660;2022-10-16T09:59:14;3.53;;;2.10;;
4359;SDS011;2193;47.980;7.660;2022-10-16T10:01:44;3.60;;;2.00;;
4359;SDS011;2193;47.980;7.660;2022-10-16T10:04:10;6.70;;;2.20;;
4359;SDS011;2193;47.980;7.660;2022-10-16T10:06:37;9.33;;;2.00;;
4359;SDS011;2193;47.980;7.660;2022-10-16T10:09:26;5.40;;;1.60;;
4359;SDS011;2193;47.980;7.660;2022-10-16T10:19:47;6.27;;;1.90;;
4359;SDS011;2193;47.980;7.660;2022-10-16T10:22:15;2.93;;;2.00;;
4359;SDS011;2193;47.980;7.660;2022-10-16T10:24:41;4.03;;;1.70;;
4359;SDS011;2193;47.980;7.660;2022-10-16T10:27:09;3.57;;;1.93;;
4359;SDS011;2193;47.980;7.660;2022-10-16T10:32:22;3.23;;;2.00;;
4359;SDS011;2193;47.980;7.660;2022-10-16T10:34:54;1.50;;;1.40;;
4359;SDS011;2193;47.980;7.660;2022-10-16T10:37:25;3.30;;;2.07;;
4359;SDS011;2193;47.980;7.660;2022-10-16T10:39:57;2.30;;;1.70;;
4359;SDS011;2193;47.980;7.660;2022-10-16T10:42:44;4.00;;;2.00;;
4359;SDS011;2193;47.980;7.660;2022-10-16T10:47:42;2.80;;;1.50;;
4359;SDS011;2193;47.980;7.660;2022-10-16T10:55:45;18.40;;;7.20;;
4359;SDS011;2193;47.980;7.660;2022-10-16T11:03:14;32.90;;;11.00;;
4359;SDS011;2193;47.980;7.660;2022-10-16T11:05:54;9.77;;;3.60;;
4359;SDS011;2193;47.980;7.660;2022-10-16T11:08:35;44.23;;;16.23;;
4359;SDS011;2193;47.980;7.660;2022-10-16T11:17:05;3.50;;;1.87;;
4359;SDS011;2193;47.980;7.660;2022-10-16T11:21:55;5.93;;;1.40;;
4359;SDS011;2193;47.980;7.660;2022-10-16T11:27:09;4.93;;;1.60;;
4359;SDS011;2193;47.980;7.660;2022-10-16T11:29:39;3.70;;;1.37;;
4359;SDS011;2193;47.980;7.660;2022-10-16T11:32:12;4.23;;;1.47;;
4359;SDS011;2193;47.980;7.660;2022-10-16T11:34:44;2.57;;;1.57;;
4359;SDS011;2193;47.980;7.660;2022-10-16T11:37:14;6.13;;;1.90;;
4359;SDS011;2193;47.980;7.660;2022-10-16T11:39:42;3.90;;;1.70;;
4359;SDS011;2193;47.980;7.660;2022-10-16T11:49:49;2.93;;;1.43;;
4359;SDS011;2193;47.980;7.660;2022-10-16T12:00:16;2.73;;;1.47;;
4359;SDS011;2193;47.980;7.660;2022-10-16T12:05:12;4.53;;;1.53;;
4359;SDS011;2193;47.980;7.660;2022-10-16T12:07:41;1.70;;;1.60;;
4359;SDS011;2193;47.980;7.660;2022-10-16T12:10:31;3.10;;;1.50;;
4359;SDS011;2193;47.980;7.660;2022-10-16T12:12:57;9.43;;;2.10;;
4359;SDS011;2193;47.980;7.660;2022-10-16T12:15:26;4.33;;;1.67;;
4359;SDS011;2193;47.980;7.660;2022-10-16T12:17:52;2.60;;;1.80;;
4359;SDS011;2193;47.980;7.660;2022-10-16T12:20:25;4.80;;;1.87;;
4359;SDS011;2193;47.980;7.660;2022-10-16T12:22:55;4.30;;;1.90;;
4359;SDS011;2193;47.980;7.660;2022-10-16T12:25:22;2.53;;;1.73;;
4359;SDS011;2193;47.980;7.660;2022-10-16T12:27:54;6.17;;;2.40;;
4359;SDS011;2193;47.980;7.660;2022-10-16T12:30:22;3.83;;;1.93;;
4359;SDS011;2193;47.980;7.660;2022-10-16T12:32:55;4.30;;;1.60;;
4359;SDS011;2193;47.980;7.660;2022-10-16T12:35:21;1.90;;;1.67;;
4359;SDS011;2193;47.980;7.660;2022-10-16T12:37:47;3.83;;;2.17;;
4359;SDS011;2193;47.980;7.660;2022-10-16T12:40:26;2.90;;;1.50;;
4359;SDS011;2193;47.980;7.660;2022-10-16T12:42:53;4.47;;;1.80;;
4359;SDS011;2193;47.980;7.660;2022-10-16T12:47:50;10.37;;;1.97;;
4359;SDS011;2193;47.980;7.660;2022-10-16T12:53:17;4.33;;;1.60;;
4359;SDS011;2193;47.980;7.660;2022-10-16T12:55:46;1.53;;;1.43;;
4359;SDS011;2193;47.980;7.660;2022-10-16T13:10:47;7.20;;;1.80;;
4359;SDS011;2193;47.980;7.660;2022-10-16T13:16:13;1.60;;;1.50;;
4359;SDS011;2193;47.980;7.660;2022-10-16T13:21:14;4.67;;;1.70;;
4359;SDS011;2193;47.980;7.660;2022-10-16T13:23:45;1.70;;;1.60;;
4359;SDS011;2193;47.980;7.660;2022-10-16T13:29:16;1.63;;;1.43;;
4359;SDS011;2193;47.980;7.660;2022-10-16T13:31:43;4.10;;;1.30;;
4359;SDS011;2193;47.980;7.660;2022-10-16T13:34:19;4.10;;;1.63;;
4359;SDS011;2193;47.980;7.660;2022-10-16T13:36:49;3.07;;;1.77;;
4359;SDS011;2193;47.980;7.660;2022-10-16T13:39:27;2.20;;;1.30;;
4359;SDS011;2193;47.980;7.660;2022-10-16T13:44:27;1.60;;;1.50;;
4359;SDS011;2193;47.980;7.660;2022-10-16T13:46:59;1.77;;;1.67;;
4359;SDS011;2193;47.980;7.660;2022-10-16T13:49:25;1.87;;;1.30;;
4359;SDS011;2193;47.980;7.660;2022-10-16T13:51:54;3.17;;;1.70;;
4359;SDS011;2193;47.980;7.660;2022-10-16T13:54:19;2.50;;;1.40;;
4359;SDS011;2193;47.980;7.660;2022-10-16T13:56:44;1.67;;;1.30;;
4359;SDS011;2193;47.980;7.660;2022-10-16T13:59:23;7.73;;;1.40;;
4359;SDS011;2193;47.980;7.660;2022-10-16T14:01:49;6.00;;;1.40;;
4359;SDS011;2193;47.980;7.660;2022-10-16T14:04:15;1.83;;;1.40;;
4359;SDS011;2193;47.980;7.660;2022-10-16T14:06:41;1.30;;;1.20;;
4359;SDS011;2193;47.980;7.660;2022-10-16T14:09:08;3.80;;;1.70;;
4359;SDS011;2193;47.980;7.660;2022-10-16T14:11:34;1.60;;;1.50;;
4359;SDS011;2193;47.980;7.660;2022-10-16T14:14:01;5.40;;;1.43;;
4359;SDS011;2193;47.980;7.660;2022-10-16T14:16:28;3.70;;;1.70;;
4359;SDS011;2193;47.980;7.660;2022-10-16T14:18:56;2.20;;;1.40;;
4359;SDS011;2193;47.980;7.660;2022-10-16T14:21:21;1.53;;;1.40;;
4359;SDS011;2193;47.980;7.660;2022-10-16T14:23:47;5.80;;;1.77;;
4359;SDS011;2193;47.980;7.660;2022-10-16T14:26:13;1.57;;;1.40;;
4359;SDS011;2193;47.980;7.660;2022-10-16T14:28:39;2.40;;;1.30;;
4359;SDS011;2193;47.980;7.660;2022-10-16T14:33:49;1.40;;;1.30;;
4359;SDS011;2193;47.980;7.660;2022-10-16T14:36:14;2.00;;;1.40;;
4359;SDS011;2193;47.980;7.660;2022-10-16T14:38:48;2.80;;;1.37;;
4359;SDS011;2193;47.980;7.660;2022-10-16T14:41:13;1.67;;;1.33;;
4359;SDS011;2193;47.980;7.660;2022-10-16T14:43:40;3.70;;;1.37;;
4359;SDS011;2193;47.980;7.660;2022-10-16T14:46:07;2.83;;;1.30;;
4359;SDS011;2193;47.980;7.660;2022-10-16T14:48:34;1.17;;;1.17;;
4359;SDS011;2193;47.980;7.660;2022-10-16T14:50:59;1.30;;;1.20;;
4359;SDS011;2193;47.980;7.660;2022-10-16T14:53:24;2.93;;;1.40;;
4359;SDS011;2193;47.980;7.660;2022-10-16T14:55:50;3.63;;;1.53;;
4359;SDS011;2193;47.980;7.660;2022-10-16T14:58:16;2.50;;;1.40;;
4359;SDS011;2193;47.980;7.660;2022-10-16T15:00:42;2.20;;;1.43;;
4359;SDS011;2193;47.980;7.660;2022-10-16T15:03:07;3.90;;;1.20;;
4359;SDS011;2193;47.980;7.660;2022-10-16T15:05:33;1.93;;;1.40;;
4359;SDS011;2193;47.980;7.660;2022-10-16T15:07:58;3.93;;;1.37;;
4359;SDS011;2193;47.980;7.660;2022-10-16T15:10:24;3.70;;;1.40;;
4359;SDS011;2193;47.980;7.660;2022-10-16T15:12:50;1.37;;;1.37;;
4359;SDS011;2193;47.980;7.660;2022-10-16T15:17:41;2.13;;;1.47;;
4359;SDS011;2193;47.980;7.660;2022-10-16T15:20:06;1.87;;;1.40;;
4359;SDS011;2193;47.980;7.660;2022-10-16T15:22:31;2.13;;;1.10;;
4359;SDS011;2193;47.980;7.660;2022-10-16T15:24:57;5.70;;;1.77;;
4359;SDS011;2193;47.980;7.660;2022-10-16T15:27:22;5.00;;;1.60;;
4359;SDS011;2193;47.980;7.660;2022-10-16T15:29:47;1.80;;;1.40;;
4359;SDS011;2193;47.980;7.660;2022-10-16T15:32:12;1.53;;;1.27;;
4359;SDS011;2193;47.980;7.660;2022-10-16T15:34:37;6.50;;;2.30;;
4359;SDS011;2193;47.980;7.660;2022-10-16T15:37:03;2.20;;;1.70;;
4359;SDS011;2193;47.980;7.660;2022-10-16T15:39:28;2.60;;;1.93;;
4359;SDS011;2193;47.980;7.660;2022-10-16T15:41:54;3.10;;;1.30;;
4359;SDS011;2193;47.980;7.660;2022-10-16T15:44:19;4.73;;;1.70;;
4359;SDS011;2193;47.980;7.660;2022-10-16T15:46:45;2.30;;;1.73;;
4359;SDS011;2193;47.980;7.660;2022-10-16T15:49:11;1.90;;;1.60;;
4359;SDS011;2193;47.980;7.660;2022-10-16T15:51:40;4.63;;;1.77;;
4359;SDS011;2193;47.980;7.660;2022-10-16T15:54:05;3.70;;;1.97;;
4359;SDS011;2193;47.980;7.660;2022-10-16T15:56:30;3.50;;;2.10;;
4359;SDS011;2193;47.980;7.660;2022-10-16T15:58:58;6.47;;;2.10;;
4359;SDS011;2193;47.980;7.660;2022-10-16T16:01:23;2.53;;;2.33;;
4359;SDS011;2193;47.980;7.660;2022-10-16T16:03:52;11.83;;;2.97;;
4359;SDS011;2193;47.980;7.660;2022-10-16T16:06:17;4.57;;;2.33;;
4359;SDS011;2193;47.980;7.660;2022-10-16T16:08:42;6.60;;;2.97;;
4359;SDS011;2193;47.980;7.660;2022-10-16T16:11:09;6.03;;;2.50;;
4359;SDS011;2193;47.980;7.660;2022-10-16T16:13:35;3.93;;;3.13;;
4359;SDS011;2193;47.980;7.660;2022-10-16T16:16:05;7.43;;;4.90;;
4359;SDS011;2193;47.980;7.660;2022-10-16T16:18:30;6.37;;;3.77;;
4359;SDS011;2193;47.980;7.660;2022-10-16T16:20:55;7.97;;;2.57;;
4359;SDS011;2193;47.980;7.660;2022-10-16T16:23:20;4.20;;;2.80;;
4359;SDS011;2193;47.980;7.660;2022-10-16T16:26:01;3.43;;;2.33;;
4359;SDS011;2193;47.980;7.660;2022-10-16T16:28:27;3.90;;;2.17;;
4359;SDS011;2193;47.980;7.660;2022-10-16T16:30:52;9.83;;;2.70;;
4359;SDS011;2193;47.980;7.660;2022-10-16T16:33:17;4.83;;;2.00;;
4359;SDS011;2193;47.980;7.660;2022-10-16T16:35:42;2.20;;;1.50;;
4359;SDS011;2193;47.980;7.660;2022-10-16T16:38:07;4.10;;;1.83;;
4359;SDS011;2193;47.980;7.660;2022-10-16T16:40:33;2.80;;;1.90;;
4359;SDS011;2193;47.980;7.660;2022-10-16T16:42:58;3.20;;;2.30;;
4359;SDS011;2193;47.980;7.660;2022-10-16T16:45:23;3.63;;;3.10;;
4359;SDS011;2193;47.980;7.660;2022-10-16T16:47:50;6.50;;;3.20;;
4359;SDS011;2193;47.980;7.660;2022-10-16T16:50:15;6.17;;;3.17;;
4359;SDS011;2193;47.980;7.660;2022-10-16T16:52:40;5.83;;;2.17;;
4359;SDS011;2193;47.980;7.660;2022-10-16T16:55:06;7.10;;;2.63;;
4359;SDS011;2193;47.980;7.660;2022-10-16T16:57:31;14.37;;;2.40;;
4359;SDS011;2193;47.980;7.660;2022-10-16T16:59:56;6.50;;;4.20;;
4359;SDS011;2193;47.980;7.660;2022-10-16T17:02:22;7.83;;;4.03;;
4359;SDS011;2193;47.980;7.660;2022-10-16T17:04:47;3.40;;;3.10;;
4359;SDS011;2193;47.980;7.660;2022-10-16T17:07:12;3.17;;;2.77;;